Abraham Lincoln Capital Airport Airport (SPI)

 

Airport Diagram
Current Weather/Forecast (MVFR Conditions)
METAR KSPI 250052Z 34007KT 10SM OVC023 04/M01 A3021 RMK AO2 SLP234 T00391011
TAF KSPI 250114Z 2501/2524 34007KT P6SM OVC025 FM250400 34008KT P6SM SCT025 FM251100 31006KT P6SM FEW150

All Charts
General
Chart Name Download
AIRPORT DIAGRAM
TAKEOFF MINIMUMS
ALTERNATE MINIMUMS
RADAR MINIMUMS
HOT SPOT

Approaches
Chart Name Download
ILS OR LOC RWY 04
ILS OR LOC RWY 22
ILS OR LOC RWY 31
RNAV (GPS) RWY 04
RNAV (GPS) RWY 13
RNAV (GPS) RWY 22
RNAV (GPS) RWY 31
VOR/DME RWY 13
VOR/DME RWY 22
VOR/DME RWY 31
VOR RWY 04